Time;durP1;ratioP1;P1;durP2;ratioP2;P2;SDS_P1;SDS_P2;PMS_P1;PMS_P2;Temp;Humidity;BMP_temperature;BMP_pressure;BME280_temperature;BME280_humidity;BME280_pressure;Samples;Min_cycle;Max_cycle;Signal;HPM_P1;HPM_P2
2023/05/11 00:00:38;;;;;;;1.43;0.80;;;14.70;99.90;;;;;;5013415;28;20208;-70
2023/05/11 00:03:05;;;;;;;1.40;1.10;;;14.70;99.90;;;;;;5028675;28;20172;-70
2023/05/11 00:05:30;;;;;;;1.60;1.03;;;14.70;99.90;;;;;;5013826;28;20172;-70
2023/05/11 00:07:56;;;;;;;2.13;0.90;;;14.80;99.90;;;;;;5013671;28;20450;-70
2023/05/11 00:10:21;;;;;;;2.37;0.97;;;14.80;99.90;;;;;;5013284;28;20225;-70
2023/05/11 00:12:47;;;;;;;1.67;1.00;;;14.70;99.90;;;;;;5013660;28;20161;-69
2023/05/11 00:15:12;;;;;;;1.70;0.97;;;14.80;99.90;;;;;;5013588;28;20588;-70
2023/05/11 00:17:38;;;;;;;3.00;1.00;;;14.80;99.90;;;;;;5014051;28;20224;-71
2023/05/11 00:20:04;;;;;;;1.30;1.03;;;14.80;99.90;;;;;;5012896;28;20216;-71
2023/05/11 00:22:30;;;;;;;3.47;1.50;;;14.80;99.90;;;;;;5013555;28;20260;-70
2023/05/11 00:24:55;;;;;;;1.80;0.93;;;14.80;99.90;;;;;;5013444;28;20495;-70
2023/05/11 00:27:21;;;;;;;1.97;1.30;;;14.80;99.90;;;;;;5013630;28;20204;-70
2023/05/11 00:29:46;;;;;;;1.50;0.90;;;14.80;99.90;;;;;;5013376;28;20262;-70
2023/05/11 00:32:12;;;;;;;1.00;0.90;;;14.80;99.90;;;;;;4996648;28;20179;-70
2023/05/11 00:34:38;;;;;;;2.00;1.30;;;14.90;99.90;;;;;;5013000;28;20178;-70
2023/05/11 00:37:03;;;;;;;1.00;0.83;;;14.90;99.90;;;;;;5013557;28;20635;-70
2023/05/11 00:39:29;;;;;;;1.17;0.90;;;14.90;99.90;;;;;;5013883;28;20182;-70
2023/05/11 00:41:55;;;;;;;1.47;1.10;;;14.90;99.90;;;;;;5012844;28;20186;-70
2023/05/11 00:44:20;;;;;;;2.20;1.00;;;14.90;99.90;;;;;;5013208;28;20562;-70
2023/05/11 00:46:46;;;;;;;1.20;1.10;;;14.90;99.90;;;;;;5013344;28;20416;-70
2023/05/11 00:49:15;;;;;;;1.47;0.90;;;14.90;99.90;;;;;;5013032;28;20180;-70
2023/05/11 00:51:42;;;;;;;1.07;0.90;;;14.90;99.90;;;;;;5013420;28;20188;-70
2023/05/11 00:54:14;;;;;;;1.53;1.00;;;14.80;99.90;;;;;;5013201;28;20413;-70
2023/05/11 00:56:40;;;;;;;1.90;1.10;;;14.80;99.90;;;;;;5013404;28;20400;-70
2023/05/11 00:59:06;;;;;;;1.00;0.80;;;14.70;99.90;;;;;;5012799;28;20411;-70
2023/05/11 01:01:32;;;;;;;2.07;1.20;;;14.80;99.90;;;;;;5012937;28;20847;-70
2023/05/11 01:03:57;;;;;;;1.23;1.00;;;14.80;99.90;;;;;;5012941;28;20422;-70
2023/05/11 01:06:45;;;;;;;1.40;1.00;;;14.90;99.90;;;;;;5013065;28;20177;-69
2023/05/11 01:09:33;;;;;;;2.30;1.17;;;14.90;99.90;;;;;;5013466;28;20190;-70
2023/05/11 01:12:13;;;;;;;1.33;1.10;;;14.90;99.90;;;;;;5012937;28;20409;-70
2023/05/11 01:14:53;;;;;;;1.73;1.07;;;15.00;99.90;;;;;;5014883;28;20755;-70
2023/05/11 01:17:29;;;;;;;1.10;1.00;;;15.00;99.90;;;;;;5017082;28;20822;-70
2023/05/11 01:20:04;;;;;;;1.57;0.67;;;15.00;99.90;;;;;;5016542;28;20396;-68
2023/05/11 01:22:47;;;;;;;1.13;0.80;;;15.00;99.90;;;;;;5016819;28;20507;-69
2023/05/11 01:25:41;;;;;;;1.00;0.80;;;15.00;99.90;;;;;;5031927;28;20409;-69
2023/05/11 01:28:37;;;;;;;0.90;0.80;;;15.00;99.90;;;;;;5016584;28;20448;-69
2023/05/11 01:31:14;;;;;;;1.77;0.93;;;15.00;99.90;;;;;;5016243;28;20420;-69
2023/05/11 01:33:54;;;;;;;2.13;1.50;;;15.00;99.90;;;;;;5016333;28;20502;-69
2023/05/11 01:36:24;;;;;;;1.10;1.00;;;14.90;99.90;;;;;;5016943;28;20393;-69
2023/05/11 01:38:51;;;;;;;1.00;0.70;;;14.90;99.90;;;;;;5016350;28;20402;-69
2023/05/11 01:41:21;;;;;;;1.73;0.80;;;14.90;99.90;;;;;;5016244;28;20427;-69
2023/05/11 01:43:53;;;;;;;2.53;0.90;;;14.80;99.90;;;;;;5016599;28;20848;-68
2023/05/11 01:46:22;;;;;;;1.83;0.87;;;14.70;99.90;;;;;;5016533;28;20392;-69
2023/05/11 01:48:50;;;;;;;1.00;0.90;;;14.60;99.90;;;;;;5015991;28;20483;-69
2023/05/11 01:51:17;;;;;;;1.37;0.93;;;14.60;99.90;;;;;;5016165;28;20484;-69
2023/05/11 01:53:45;;;;;;;1.00;0.80;;;14.50;99.90;;;;;;5016403;28;20416;-69
2023/05/11 01:56:11;;;;;;;1.57;0.73;;;14.60;99.90;;;;;;5016129;28;20413;-69
2023/05/11 01:58:39;;;;;;;1.50;0.80;;;14.60;99.90;;;;;;5016375;28;20420;-69
2023/05/11 02:01:06;;;;;;;1.10;0.83;;;14.80;99.90;;;;;;5015527;28;20831;-69
2023/05/11 02:03:35;;;;;;;0.80;0.70;;;14.80;99.90;;;;;;5015978;28;20416;-69
2023/05/11 02:06:03;;;;;;;1.10;0.70;;;14.80;99.90;;;;;;5015877;28;20452;-68
2023/05/11 02:08:30;;;;;;;2.03;0.80;;;14.70;99.90;;;;;;5015727;28;20964;-68
2023/05/11 02:10:57;;;;;;;1.00;0.90;;;14.80;99.90;;;;;;5015752;28;20468;-68
2023/05/11 02:13:25;;;;;;;3.57;1.20;;;14.80;99.90;;;;;;5015665;28;20422;-68
2023/05/11 02:15:53;;;;;;;0.90;0.70;;;15.00;99.90;;;;;;5015505;28;20888;-68
2023/05/11 02:18:19;;;;;;;0.90;0.70;;;15.00;99.90;;;;;;5015499;28;20418;-69
2023/05/11 02:20:46;;;;;;;1.47;0.90;;;14.90;99.90;;;;;;5015796;28;20431;-69
2023/05/11 02:23:12;;;;;;;1.30;1.00;;;14.90;99.90;;;;;;5015808;28;20461;-69
2023/05/11 02:25:39;;;;;;;0.90;0.80;;;14.90;99.90;;;;;;5014359;28;20915;-68
2023/05/11 02:28:05;;;;;;;1.20;1.00;;;14.80;99.90;;;;;;4998155;28;20458;-69
2023/05/11 02:30:33;;;;;;;1.90;0.83;;;14.60;99.90;;;;;;4997807;28;20435;-69
2023/05/11 02:33:04;;;;;;;1.87;0.97;;;14.70;99.90;;;;;;5015482;28;20409;-69
2023/05/11 02:35:35;;;;;;;1.30;0.90;;;14.70;99.90;;;;;;5015295;28;20535;-69
2023/05/11 02:38:03;;;;;;;1.90;0.90;;;14.70;99.90;;;;;;5015610;28;20485;-69
2023/05/11 02:40:32;;;;;;;1.30;0.80;;;14.70;99.90;;;;;;5015166;28;20436;-69
2023/05/11 02:43:06;;;;;;;2.40;1.00;;;14.70;99.90;;;;;;5015181;28;20420;-69
2023/05/11 02:45:32;;;;;;;0.80;0.80;;;14.80;99.90;;;;;;5015030;28;20406;-69
2023/05/11 02:48:02;;;;;;;1.10;1.00;;;14.80;99.90;;;;;;5015352;28;20491;-69
2023/05/11 02:50:30;;;;;;;1.90;0.87;;;14.80;99.90;;;;;;5015235;28;20430;-69
2023/05/11 02:53:00;;;;;;;1.67;0.90;;;14.70;99.90;;;;;;5015110;28;20493;-70
2023/05/11 02:55:27;;;;;;;2.27;0.90;;;14.70;99.90;;;;;;5030279;28;20446;-70
2023/05/11 02:57:53;;;;;;;2.07;1.03;;;14.60;99.90;;;;;;5015030;28;20898;-70
2023/05/11 03:00:19;;;;;;;4.00;0.83;;;14.70;99.90;;;;;;5014712;28;20508;-70
2023/05/11 03:02:45;;;;;;;1.17;0.80;;;14.50;99.90;;;;;;5015031;28;20403;-70
2023/05/11 03:05:10;;;;;;;1.77;0.70;;;14.60;99.90;;;;;;5014684;28;20258;-70
2023/05/11 03:07:36;;;;;;;2.40;0.73;;;14.50;99.90;;;;;;5014761;28;20614;-70
2023/05/11 03:10:02;;;;;;;1.00;0.70;;;14.50;99.90;;;;;;5014850;28;20691;-70
2023/05/11 03:12:32;;;;;;;1.00;0.70;;;14.50;99.90;;;;;;5014632;28;20282;-70
2023/05/11 03:14:59;;;;;;;1.00;0.70;;;14.50;99.90;;;;;;5014473;28;20493;-70
2023/05/11 03:17:27;;;;;;;1.23;0.83;;;14.40;99.90;;;;;;5014613;28;20417;-68
2023/05/11 03:19:54;;;;;;;1.73;0.70;;;14.40;99.90;;;;;;5014602;28;20421;-69
2023/05/11 03:22:22;;;;;;;2.53;1.00;;;14.50;99.90;;;;;;5014518;28;20419;-69
2023/05/11 03:24:48;;;;;;;0.80;0.80;;;14.40;99.90;;;;;;5014960;28;20413;-69
2023/05/11 03:27:15;;;;;;;1.83;0.80;;;14.30;99.90;;;;;;5014489;28;20488;-69
2023/05/11 03:29:43;;;;;;;0.93;0.80;;;14.40;99.90;;;;;;5014211;28;20482;-70
2023/05/11 03:32:09;;;;;;;4.17;0.80;;;14.40;99.90;;;;;;5014580;28;20416;-69
2023/05/11 03:34:34;;;;;;;1.63;0.80;;;14.40;99.90;;;;;;5014516;28;20399;-69
2023/05/11 03:37:01;;;;;;;2.60;1.07;;;14.40;99.90;;;;;;5014206;28;20652;-69
2023/05/11 03:39:30;;;;;;;0.93;0.70;;;14.40;99.90;;;;;;5015406;28;20229;-69
2023/05/11 03:41:57;;;;;;;1.87;0.90;;;14.30;99.90;;;;;;5014787;28;20424;-69
2023/05/11 03:44:23;;;;;;;1.30;0.90;;;14.40;99.90;;;;;;5014770;28;20830;-69
2023/05/11 03:46:49;;;;;;;1.30;1.10;;;14.50;99.90;;;;;;5014522;28;20416;-69
2023/05/11 03:49:16;;;;;;;2.00;1.10;;;14.30;99.90;;;;;;5013471;28;20433;-70
2023/05/11 03:51:43;;;;;;;1.63;1.00;;;14.40;99.90;;;;;;5015020;28;20464;-69
2023/05/11 03:54:09;;;;;;;4.13;1.07;;;14.10;99.90;;;;;;5015659;28;20405;-69
2023/05/11 03:56:37;;;;;;;1.47;1.00;;;14.00;99.90;;;;;;5014555;28;20406;-69
2023/05/11 03:59:03;;;;;;;3.53;1.20;;;14.20;99.90;;;;;;5014946;28;20799;-69
2023/05/11 04:01:30;;;;;;;1.70;1.00;;;14.30;99.90;;;;;;5034977;23;20596;-73
2023/05/11 04:03:56;;;;;;;2.00;1.03;;;14.20;99.90;;;;;;5014078;28;20764;-73
2023/05/11 04:06:21;;;;;;;1.23;1.13;;;14.20;99.90;;;;;;4996522;28;20416;-72
2023/05/11 04:08:47;;;;;;;2.43;1.33;;;14.30;99.90;;;;;;5002837;28;20274;-73
2023/05/11 04:11:12;;;;;;;1.20;1.07;;;14.40;99.90;;;;;;4976893;28;20284;-73
2023/05/11 04:13:38;;;;;;;1.90;1.10;;;14.40;99.90;;;;;;4994934;28;20178;-73
2023/05/11 04:16:04;;;;;;;1.77;1.00;;;14.30;99.90;;;;;;4994661;28;20173;-73
2023/05/11 04:18:30;;;;;;;1.97;1.10;;;14.30;99.90;;;;;;4998783;28;20191;-72
2023/05/11 04:20:55;;;;;;;1.27;1.17;;;13.90;99.90;;;;;;4994700;28;20968;-73
2023/05/11 04:23:21;;;;;;;1.67;1.30;;;13.90;99.90;;;;;;4995363;28;20205;-73
2023/05/11 04:25:51;;;;;;;1.57;1.30;;;13.80;99.90;;;;;;4977507;28;20682;-73
2023/05/11 04:28:17;;;;;;;1.93;1.10;;;13.90;99.90;;;;;;4977397;28;20259;-72
2023/05/11 04:30:42;;;;;;;1.77;1.30;;;13.80;99.90;;;;;;4993994;28;20524;-73
2023/05/11 04:33:08;;;;;;;1.70;1.20;;;14.00;99.90;;;;;;4994294;28;20955;-73
2023/05/11 04:35:38;;;;;;;1.50;0.90;;;14.10;99.90;;;;;;4993770;28;20175;-72
2023/05/11 04:38:05;;;;;;;1.03;0.90;;;14.30;99.90;;;;;;4993986;28;20200;-72
2023/05/11 04:40:30;;;;;;;1.73;1.20;;;14.40;99.90;;;;;;4994326;28;20883;-72
2023/05/11 04:42:56;;;;;;;2.10;1.00;;;14.50;99.90;;;;;;4994687;28;20494;-74
2023/05/11 04:45:21;;;;;;;2.87;1.07;;;14.40;99.90;;;;;;5005210;28;20171;-72
2023/05/11 04:47:47;;;;;;;1.50;1.40;;;14.40;99.90;;;;;;5013459;28;20197;-73
2023/05/11 04:50:12;;;;;;;4.13;1.30;;;14.60;99.90;;;;;;5015956;28;20170;-73
2023/05/11 04:52:38;;;;;;;1.40;1.10;;;14.60;99.90;;;;;;5017569;28;20291;-73
2023/05/11 04:55:04;;;;;;;1.97;1.07;;;14.40;99.90;;;;;;5017579;28;20187;-73
2023/05/11 04:57:29;;;;;;;1.47;1.00;;;14.50;99.90;;;;;;5017443;28;20197;-72
2023/05/11 04:59:55;;;;;;;1.20;1.03;;;14.40;99.90;;;;;;4999853;28;20410;-73
2023/05/11 05:02:20;;;;;;;1.93;1.57;;;14.50;99.90;;;;;;4999674;28;20631;-72
2023/05/11 05:04:46;;;;;;;1.20;1.10;;;14.60;99.90;;;;;;5016926;28;20251;-72
2023/05/11 05:07:11;;;;;;;2.10;1.20;;;14.40;99.90;;;;;;5017364;28;20189;-73
2023/05/11 05:09:37;;;;;;;1.70;1.10;;;14.40;99.90;;;;;;5017610;28;20168;-72
2023/05/11 05:12:03;;;;;;;1.20;1.10;;;14.30;99.90;;;;;;5017358;28;20260;-72
2023/05/11 05:14:28;;;;;;;5.53;1.27;;;14.40;99.90;;;;;;5017165;28;20168;-72
2023/05/11 05:16:54;;;;;;;1.00;0.90;;;14.50;99.90;;;;;;5017363;28;20629;-72
2023/05/11 05:19:19;;;;;;;1.83;1.57;;;14.60;99.90;;;;;;4999191;28;20181;-72
2023/05/11 05:21:45;;;;;;;1.50;1.40;;;14.60;99.90;;;;;;5016888;28;20194;-72
2023/05/11 05:24:11;;;;;;;1.30;1.17;;;14.60;99.90;;;;;;5017060;28;20206;-73
2023/05/11 05:26:37;;;;;;;1.83;1.73;;;14.70;99.90;;;;;;5017063;28;20241;-73
2023/05/11 05:29:03;;;;;;;2.80;1.53;;;14.70;99.90;;;;;;4999316;28;20197;-73
2023/05/11 05:31:29;;;;;;;1.17;1.07;;;14.60;99.90;;;;;;5032099;28;20193;-72
2023/05/11 05:33:54;;;;;;;1.60;1.40;;;14.40;99.90;;;;;;5016460;28;20475;-73
2023/05/11 05:36:20;;;;;;;1.30;1.20;;;14.60;99.90;;;;;;5017291;28;20164;-72
2023/05/11 05:38:45;;;;;;;1.20;0.90;;;14.50;99.90;;;;;;5016660;28;20258;-73
2023/05/11 05:41:11;;;;;;;2.17;1.40;;;14.70;99.90;;;;;;4999113;28;20199;-73
2023/05/11 05:43:36;;;;;;;2.17;1.50;;;14.70;99.90;;;;;;5016682;28;20180;-73
2023/05/11 05:46:02;;;;;;;3.33;1.57;;;14.80;99.90;;;;;;4999127;28;20206;-71
2023/05/11 05:48:28;;;;;;;5.40;1.20;;;15.00;99.90;;;;;;5015495;28;20269;-73
2023/05/11 05:50:53;;;;;;;1.67;1.30;;;15.10;99.90;;;;;;5016374;28;20558;-73
2023/05/11 05:53:19;;;;;;;1.23;1.13;;;14.90;99.90;;;;;;5016639;28;20175;-72
2023/05/11 05:55:44;;;;;;;2.50;1.70;;;14.80;99.90;;;;;;5016969;28;20623;-73
2023/05/11 05:58:10;;;;;;;1.37;1.27;;;14.90;99.90;;;;;;4999115;28;20536;-73
2023/05/11 06:00:35;;;;;;;1.37;1.20;;;15.00;99.90;;;;;;4995284;28;20211;-73
2023/05/11 06:03:01;;;;;;;2.30;1.40;;;15.10;99.90;;;;;;4999134;28;20750;-73
2023/05/11 06:05:27;;;;;;;2.70;1.07;;;15.00;99.90;;;;;;5016280;28;20176;-72
2023/05/11 06:07:52;;;;;;;3.00;2.80;;;15.00;99.90;;;;;;5016386;28;20277;-73
2023/05/11 06:10:18;;;;;;;2.70;1.60;;;15.10;99.90;;;;;;5016207;28;20183;-73
2023/05/11 06:12:43;;;;;;;1.43;1.30;;;15.20;99.90;;;;;;5016478;28;20233;-73
2023/05/11 06:15:09;;;;;;;1.50;1.10;;;15.10;99.90;;;;;;5016454;28;20173;-73
2023/05/11 06:17:35;;;;;;;2.50;2.27;;;15.00;99.90;;;;;;4993584;28;20178;-73
2023/05/11 06:20:00;;;;;;;1.63;1.30;;;15.20;99.90;;;;;;5015898;28;20401;-72
2023/05/11 06:22:26;;;;;;;1.77;1.40;;;15.20;99.90;;;;;;5016320;28;20188;-73
2023/05/11 06:24:51;;;;;;;1.43;1.30;;;15.10;99.90;;;;;;5016250;28;20170;-74
2023/05/11 06:27:17;;;;;;;3.77;3.47;;;15.20;99.90;;;;;;5016043;28;20651;-74
2023/05/11 06:29:43;;;;;;;2.43;2.23;;;15.20;99.90;;;;;;5016093;28;20176;-73
2023/05/11 06:32:09;;;;;;;2.80;1.53;;;15.30;99.90;;;;;;5015226;28;20403;-74
2023/05/11 06:34:34;;;;;;;1.43;1.23;;;15.50;99.90;;;;;;5015445;28;20411;-71
2023/05/11 06:37:00;;;;;;;1.30;1.20;;;15.40;99.90;;;;;;4998093;28;20590;-74
2023/05/11 06:39:25;;;;;;;1.57;1.33;;;15.40;99.90;;;;;;4998187;28;20176;-74
2023/05/11 06:41:52;;;;;;;2.13;1.00;;;15.50;99.90;;;;;;5015919;28;20600;-73
2023/05/11 06:44:17;;;;;;;2.47;0.90;;;15.40;99.90;;;;;;5018505;28;20651;-73
2023/05/11 06:46:43;;;;;;;2.40;1.50;;;15.20;99.90;;;;;;5015904;28;20407;-72
2023/05/11 06:49:08;;;;;;;1.80;1.10;;;15.30;99.90;;;;;;5014928;28;20183;-72
2023/05/11 06:51:34;;;;;;;5.43;1.80;;;15.30;99.90;;;;;;5015551;28;20190;-72
2023/05/11 06:54:00;;;;;;;1.40;1.10;;;14.80;99.90;;;;;;5015346;28;20191;-71
2023/05/11 06:56:27;;;;;;;1.43;1.27;;;14.80;99.90;;;;;;5015833;28;20162;-72
2023/05/11 06:58:53;;;;;;;2.03;1.37;;;15.00;99.90;;;;;;5015302;28;20842;-75
2023/05/11 07:01:18;;;;;;;2.10;1.20;;;15.10;99.90;;;;;;4997314;28;20568;-72
2023/05/11 07:03:47;;;;;;;1.40;1.20;;;15.20;99.90;;;;;;5014855;28;20178;-74
2023/05/11 07:06:13;;;;;;;4.30;1.80;;;15.40;99.90;;;;;;5014618;28;20208;-74
2023/05/11 07:08:38;;;;;;;2.23;1.60;;;15.50;99.90;;;;;;5015462;28;20452;-73
2023/05/11 07:11:04;;;;;;;2.10;1.43;;;15.40;99.90;;;;;;5014972;28;20644;-71
2023/05/11 07:13:29;;;;;;;2.47;1.53;;;15.50;99.90;;;;;;5015190;28;20249;-71
2023/05/11 07:15:55;;;;;;;1.70;1.40;;;15.50;99.90;;;;;;5016416;28;20172;-72
2023/05/11 07:18:21;;;;;;;2.83;1.33;;;15.50;99.90;;;;;;5016741;28;20547;-71
2023/05/11 07:20:48;;;;;;;2.80;1.10;;;15.50;99.90;;;;;;5015424;28;20569;-74
2023/05/11 07:23:15;;;;;;;1.63;1.27;;;15.50;99.90;;;;;;5015286;28;20710;-74
2023/05/11 07:25:41;;;;;;;2.43;1.50;;;15.50;99.90;;;;;;5014815;28;20405;-75
2023/05/11 07:28:07;;;;;;;3.50;1.40;;;15.40;99.90;;;;;;5015676;28;20533;-74
2023/05/11 07:30:32;;;;;;;2.53;1.43;;;15.50;99.90;;;;;;4997519;28;20184;-75
2023/05/11 07:32:58;;;;;;;1.63;1.37;;;15.50;99.90;;;;;;5014816;28;20175;-75
2023/05/11 07:35:23;;;;;;;2.60;1.50;;;15.40;99.90;;;;;;5014829;28;20170;-75
2023/05/11 07:37:49;;;;;;;2.17;1.90;;;15.50;99.90;;;;;;5014736;28;20171;-75
2023/05/11 07:40:14;;;;;;;1.80;1.33;;;15.70;99.90;;;;;;4996732;28;20763;-75
2023/05/11 07:42:40;;;;;;;1.60;1.40;;;15.80;99.90;;;;;;5015306;28;20174;-75
2023/05/11 07:45:06;;;;;;;4.37;1.33;;;15.80;99.90;;;;;;5015830;28;20637;-74
2023/05/11 07:47:32;;;;;;;3.20;1.87;;;15.60;99.90;;;;;;5014809;28;20230;-71
2023/05/11 07:49:57;;;;;;;1.90;1.40;;;15.70;99.90;;;;;;4995408;28;20900;-70
2023/05/11 07:52:23;;;;;;;2.53;1.40;;;15.60;99.90;;;;;;4995992;28;20176;-71
2023/05/11 07:54:48;;;;;;;2.47;1.67;;;15.60;99.90;;;;;;4997976;28;20167;-73
2023/05/11 07:57:14;;;;;;;2.17;1.57;;;15.80;99.90;;;;;;5001998;28;20172;-72
2023/05/11 07:59:40;;;;;;;1.77;1.30;;;15.80;99.90;;;;;;5016005;28;20228;-73
2023/05/11 08:02:07;;;;;;;2.70;1.70;;;16.00;99.90;;;;;;5015727;28;20216;-73
2023/05/11 08:04:32;;;;;;;3.50;1.40;;;16.10;99.90;;;;;;5016303;28;20164;-72
2023/05/11 08:06:58;;;;;;;3.10;1.57;;;15.90;99.90;;;;;;5015642;28;20433;-73
2023/05/11 08:09:24;;;;;;;1.90;1.43;;;16.10;99.90;;;;;;5013824;28;20296;-72
2023/05/11 08:11:49;;;;;;;2.53;1.47;;;15.80;99.90;;;;;;5013845;28;20270;-72
2023/05/11 08:14:15;;;;;;;2.53;1.37;;;15.50;99.90;;;;;;5013902;28;20168;-72
2023/05/11 08:16:41;;;;;;;2.80;2.53;;;15.80;99.90;;;;;;5014251;28;20192;-74
2023/05/11 08:19:07;;;;;;;1.70;1.57;;;15.80;99.90;;;;;;4995686;28;20442;-72
2023/05/11 08:21:33;;;;;;;1.57;1.40;;;15.70;99.90;;;;;;5013975;28;20470;-72
2023/05/11 08:23:58;;;;;;;1.90;1.80;;;15.40;99.90;;;;;;4996217;28;20175;-71
2023/05/11 08:26:24;;;;;;;1.77;1.60;;;15.60;99.90;;;;;;4995876;28;20194;-73
2023/05/11 08:28:51;;;;;;;2.70;1.77;;;15.40;99.90;;;;;;4994104;28;20285;-75
2023/05/11 08:31:17;;;;;;;2.20;1.97;;;15.50;99.90;;;;;;4994375;28;20218;-76
2023/05/11 08:33:43;;;;;;;3.03;1.73;;;15.30;99.90;;;;;;4993681;28;20421;-73
2023/05/11 08:36:10;;;;;;;2.60;1.83;;;15.10;99.90;;;;;;4994076;28;20166;-76
2023/05/11 08:38:35;;;;;;;2.60;1.77;;;15.10;99.90;;;;;;4976813;28;20454;-77
2023/05/11 08:41:02;;;;;;;1.73;1.40;;;15.10;99.90;;;;;;5007685;28;20931;-76
2023/05/11 08:43:28;;;;;;;1.93;1.50;;;15.20;99.90;;;;;;5013891;28;20179;-70
2023/05/11 08:46:00;;;;;;;3.47;1.77;;;15.50;99.90;;;;;;5013483;28;20414;-71
2023/05/11 08:48:26;;;;;;;1.80;1.70;;;15.40;99.90;;;;;;5013218;28;20451;-73
2023/05/11 08:50:52;;;;;;;2.20;1.50;;;15.30;99.90;;;;;;5013148;28;20487;-71
2023/05/11 08:53:17;;;;;;;3.00;1.97;;;15.20;99.90;;;;;;5013829;28;20820;-73
2023/05/11 08:55:45;;;;;;;2.40;1.70;;;15.30;99.90;;;;;;5013776;28;20520;-72
2023/05/11 08:58:13;;;;;;;3.60;2.17;;;15.40;99.90;;;;;;5013932;28;20181;-71
2023/05/11 09:00:39;;;;;;;4.43;2.00;;;15.50;99.90;;;;;;5013273;28;20988;-71
2023/05/11 09:03:05;;;;;;;2.53;2.20;;;15.50;99.90;;;;;;5013688;28;20398;-71
2023/05/11 09:05:31;;;;;;;1.60;1.50;;;15.40;99.90;;;;;;5013381;28;20265;-75
2023/05/11 09:08:03;;;;;;;2.60;2.40;;;15.30;99.90;;;;;;4995457;28;20194;-72
2023/05/11 09:10:29;;;;;;;2.10;1.90;;;15.00;99.90;;;;;;5015091;28;20441;-72
2023/05/11 09:12:54;;;;;;;5.57;2.80;;;15.10;99.90;;;;;;5013027;28;20906;-72
2023/05/11 09:15:20;;;;;;;2.67;2.23;;;15.30;99.90;;;;;;5013195;28;20168;-72
2023/05/11 09:17:46;;;;;;;3.50;2.30;;;15.40;99.90;;;;;;4995578;28;20170;-72
2023/05/11 09:20:11;;;;;;;3.03;2.73;;;15.60;99.90;;;;;;5012604;28;20178;-72
2023/05/11 09:22:43;;;;;;;2.37;2.17;;;15.60;99.90;;;;;;5012800;28;20229;-71
2023/05/11 09:25:12;;;;;;;2.63;2.43;;;15.50;99.90;;;;;;5012897;28;20544;-70
2023/05/11 09:27:44;;;;;;;3.13;2.50;;;15.70;99.90;;;;;;5012803;28;20445;-71
2023/05/11 09:30:18;;;;;;;2.30;2.10;;;15.80;99.90;;;;;;5013334;28;20401;-71
2023/05/11 09:32:54;;;;;;;3.70;3.10;;;15.80;99.90;;;;;;5012868;28;20392;-70
2023/05/11 09:35:26;;;;;;;4.07;2.70;;;15.60;99.90;;;;;;5013668;28;20757;-71
2023/05/11 09:38:01;;;;;;;2.70;2.50;;;15.60;99.90;;;;;;5017094;28;20461;-71
2023/05/11 09:40:27;;;;;;;3.00;2.43;;;15.80;99.90;;;;;;5016462;28;20426;-69
2023/05/11 09:42:53;;;;;;;3.70;2.23;;;16.00;99.90;;;;;;5016695;28;20757;-71
2023/05/11 09:45:37;;;;;;;2.70;2.20;;;15.70;99.90;;;;;;5016842;28;21015;-72
2023/05/11 09:48:11;;;;;;;1.80;1.70;;;15.60;99.90;;;;;;5016440;28;20453;-71
2023/05/11 09:50:36;;;;;;;2.00;1.90;;;15.30;99.90;;;;;;5012991;28;20481;-70
2023/05/11 09:53:02;;;;;;;2.40;2.20;;;15.50;99.90;;;;;;5016345;28;20880;-71
2023/05/11 09:55:28;;;;;;;3.77;2.00;;;15.40;99.90;;;;;;5016489;28;20208;-72
2023/05/11 09:57:59;;;;;;;2.30;2.00;;;15.30;99.90;;;;;;5018485;28;20178;-70
2023/05/11 10:00:25;;;;;;;2.00;1.90;;;15.10;99.90;;;;;;5052952;23;20213;-76
2023/05/11 10:03:06;;;;;;;4.50;2.10;;;15.10;99.90;;;;;;4997496;28;20429;-72
2023/05/11 10:05:34;;;;;;;3.80;2.40;;;15.30;99.90;;;;;;5015522;28;20402;-71
2023/05/11 10:08:04;;;;;;;2.00;1.90;;;15.40;99.90;;;;;;5015807;28;20504;-72
2023/05/11 10:10:32;;;;;;;2.87;2.67;;;15.50;99.90;;;;;;5015969;28;20411;-74
2023/05/11 10:12:59;;;;;;;3.63;2.73;;;15.20;99.90;;;;;;5015799;28;20429;-71
2023/05/11 10:15:27;;;;;;;2.90;2.70;;;15.30;99.90;;;;;;5016097;28;20436;-72
2023/05/11 10:17:57;;;;;;;3.40;3.00;;;15.30;99.90;;;;;;5015701;28;20932;-71
2023/05/11 10:20:24;;;;;;;5.07;3.17;;;15.40;99.90;;;;;;5015096;28;20586;-69
2023/05/11 10:22:54;;;;;;;3.60;2.73;;;15.50;99.90;;;;;;4997955;28;20421;-70
2023/05/11 10:25:23;;;;;;;4.50;3.10;;;15.30;99.90;;;;;;5015728;28;20416;-71
2023/05/11 10:27:50;;;;;;;3.40;3.10;;;15.10;99.90;;;;;;5015327;28;20545;-70
2023/05/11 10:30:16;;;;;;;2.07;1.83;;;15.50;99.90;;;;;;5013767;28;20776;-70
2023/05/11 10:32:46;;;;;;;1.73;1.47;;;15.20;99.90;;;;;;5015303;28;20415;-70
2023/05/11 10:35:12;;;;;;;3.13;2.07;;;15.00;99.90;;;;;;5015004;28;20407;-70
2023/05/11 10:37:39;;;;;;;4.00;2.70;;;14.90;99.90;;;;;;5015242;28;20411;-70
2023/05/11 10:40:06;;;;;;;2.30;2.07;;;14.90;99.90;;;;;;5014699;28;20260;-70
2023/05/11 10:42:55;;;;;;;2.70;1.57;;;14.90;99.90;;;;;;5015269;28;20466;-71
2023/05/11 10:45:55;;;;;;;1.97;1.80;;;15.00;99.90;;;;;;5015216;28;20405;-70
2023/05/11 10:48:45;;;;;;;2.80;1.70;;;15.10;99.90;;;;;;5014155;28;20453;-71
2023/05/11 10:51:19;;;;;;;1.77;1.50;;;15.10;99.90;;;;;;5015026;28;20863;-70
2023/05/11 10:54:09;;;;;;;2.20;1.60;;;15.20;99.90;;;;;;5014850;28;20390;-69
2023/05/11 10:56:51;;;;;;;2.40;2.03;;;15.50;99.90;;;;;;5015212;28;20384;-70
2023/05/11 10:59:52;;;;;;;2.50;1.90;;;15.30;99.90;;;;;;5015148;28;20394;-70
2023/05/11 11:02:19;;;;;;;4.20;2.50;;;15.50;99.90;;;;;;5014577;28;20516;-71
2023/05/11 11:04:49;;;;;;;3.40;3.10;;;15.70;99.90;;;;;;5015201;28;20948;-71
2023/05/11 11:07:18;;;;;;;3.40;2.93;;;15.30;99.90;;;;;;5015010;28;20442;-71
2023/05/11 11:09:52;;;;;;;3.57;2.53;;;15.70;99.90;;;;;;5014960;28;20407;-72
2023/05/11 11:12:19;;;;;;;3.50;2.20;;;15.70;99.90;;;;;;5014464;28;20423;-71
2023/05/11 11:14:59;;;;;;;2.20;2.00;;;15.70;99.90;;;;;;4996906;28;20406;-75
2023/05/11 11:17:30;;;;;;;3.30;2.33;;;15.60;99.90;;;;;;5014726;28;20478;-75
2023/05/11 11:19:56;;;;;;;3.00;2.10;;;15.30;99.90;;;;;;5014232;28;20396;-71
2023/05/11 11:22:34;;;;;;;2.07;1.70;;;15.40;99.90;;;;;;5014483;28;20422;-72
2023/05/11 11:25:04;;;;;;;2.60;2.40;;;15.50;99.90;;;;;;5014308;28;20494;-72
2023/05/11 11:27:39;;;;;;;1.63;1.53;;;15.30;99.90;;;;;;5014198;28;20442;-72
2023/05/11 11:30:22;;;;;;;1.80;1.70;;;15.20;99.90;;;;;;5014680;28;20448;-72
2023/05/11 11:32:52;;;;;;;2.20;2.00;;;15.30;99.90;;;;;;5014775;28;20404;-73
2023/05/11 11:35:40;;;;;;;2.60;2.40;;;15.40;99.90;;;;;;5013804;28;20381;-74
2023/05/11 11:38:17;;;;;;;2.50;2.30;;;15.40;99.90;;;;;;5014361;28;20456;-73
2023/05/11 11:40:53;;;;;;;3.20;2.60;;;15.00;99.90;;;;;;5013962;28;20420;-73
2023/05/11 11:43:27;;;;;;;2.50;2.30;;;15.10;99.90;;;;;;5013957;28;20965;-73
2023/05/11 11:46:02;;;;;;;2.83;2.47;;;15.50;99.90;;;;;;5013197;28;20394;-74
2023/05/11 11:48:33;;;;;;;3.40;2.40;;;15.40;99.90;;;;;;4992625;28;20451;-74
2023/05/11 11:51:09;;;;;;;5.30;2.43;;;15.30;99.90;;;;;;4976714;28;20439;-74
2023/05/11 11:53:35;;;;;;;3.43;2.00;;;15.50;99.90;;;;;;4994224;28;20391;-75
2023/05/11 11:56:02;;;;;;;1.97;1.83;;;15.70;99.90;;;;;;4977190;28;20415;-73
2023/05/11 11:58:40;;;;;;;1.70;1.23;;;15.80;99.90;;;;;;4993872;28;20439;-72
2023/05/11 12:01:06;;;;;;;1.20;1.10;;;15.80;99.90;;;;;;4994065;28;20534;-75
2023/05/11 12:03:36;;;;;;;2.10;1.73;;;15.70;99.90;;;;;;4993627;28;20414;-75
2023/05/11 12:06:04;;;;;;;4.07;1.80;;;16.10;99.90;;;;;;4993969;28;20465;-75
2023/05/11 12:08:30;;;;;;;1.77;1.50;;;16.20;99.90;;;;;;4994398;28;20455;-75
2023/05/11 12:10:57;;;;;;;2.70;1.77;;;16.20;99.90;;;;;;4994501;28;20511;-76
2023/05/11 12:13:24;;;;;;;2.90;1.80;;;16.60;99.90;;;;;;4994220;28;20168;-75
2023/05/11 12:15:49;;;;;;;1.70;1.50;;;16.70;99.90;;;;;;4993982;28;20400;-73
2023/05/11 12:18:21;;;;;;;1.73;1.50;;;16.60;99.90;;;;;;4999914;28;20403;-74
2023/05/11 12:20:47;;;;;;;2.30;1.40;;;16.60;99.90;;;;;;5013731;28;20199;-74
2023/05/11 12:23:13;;;;;;;1.87;1.63;;;16.40;99.90;;;;;;5013773;28;20414;-75
2023/05/11 12:25:39;;;;;;;1.70;1.60;;;16.10;99.90;;;;;;5013969;28;20185;-73
2023/05/11 12:28:05;;;;;;;1.80;1.70;;;15.90;99.90;;;;;;5013190;28;20554;-75
2023/05/11 12:30:33;;;;;;;2.03;1.80;;;16.00;99.90;;;;;;5012725;28;20407;-76
2023/05/11 12:32:59;;;;;;;2.73;1.90;;;16.00;99.90;;;;;;4995530;28;20493;-72
2023/05/11 12:35:28;;;;;;;2.00;1.90;;;15.90;99.90;;;;;;5012928;28;20490;-74
2023/05/11 12:37:55;;;;;;;3.20;1.97;;;16.00;99.90;;;;;;5013762;28;20472;-73
2023/05/11 12:40:20;;;;;;;1.43;1.33;;;16.10;99.90;;;;;;5013216;28;20502;-71
2023/05/11 12:42:57;;;;;;;2.43;1.70;;;16.00;99.90;;;;;;4995570;28;20833;-73
2023/05/11 12:45:24;;;;;;;1.77;1.67;;;16.10;99.90;;;;;;5013913;28;20622;-73
2023/05/11 12:47:52;;;;;;;2.43;1.50;;;16.30;99.90;;;;;;5013292;28;20453;-74
2023/05/11 12:50:18;;;;;;;2.53;1.90;;;16.00;99.90;;;;;;5012167;28;20827;-72
2023/05/11 12:52:44;;;;;;;2.10;1.90;;;16.30;99.90;;;;;;5013142;28;20523;-72